createdAt,value
2019-01-04T00:00:23.002Z,9.20
2019-01-04T00:02:51.508Z,8.40
2019-01-04T00:05:19.985Z,8.63
2019-01-04T00:07:48.581Z,8.93
2019-01-04T00:10:17.044Z,6.47
2019-01-04T00:12:45.479Z,8.80
2019-01-04T00:15:14.079Z,8.10
2019-01-04T00:17:42.628Z,9.37
2019-01-04T00:20:11.182Z,8.17
2019-01-04T00:22:39.638Z,5.80
2019-01-04T00:25:08.411Z,8.63
2019-01-04T00:27:36.845Z,6.70
2019-01-04T00:30:08.320Z,7.63
2019-01-04T00:32:36.735Z,7.27
2019-01-04T00:35:06.518Z,7.43
2019-01-04T00:37:35.089Z,5.77
2019-01-04T00:40:04.987Z,8.50
2019-01-04T00:42:33.532Z,6.23
2019-01-04T00:45:02.058Z,10.60
2019-01-04T00:47:30.645Z,7.27
2019-01-04T00:49:59.159Z,9.87
2019-01-04T00:52:27.655Z,8.70
2019-01-04T00:54:57.995Z,9.57
2019-01-04T00:57:35.221Z,9.07
2019-01-04T01:00:41.809Z,11.43
2019-01-04T01:03:35.570Z,6.57
2019-01-04T01:06:22.180Z,8.17
2019-01-04T01:09:22.440Z,7.17
2019-01-04T01:12:03.809Z,7.13
2019-01-04T01:14:51.708Z,10.70
2019-01-04T01:17:49.898Z,9.50
2019-01-04T01:20:39.878Z,7.10
2019-01-04T01:23:44.887Z,9.47
2019-01-04T01:26:25.160Z,10.97
2019-01-04T01:29:16.046Z,9.10
2019-01-04T01:31:55.775Z,8.53
2019-01-04T01:34:44.136Z,8.40
2019-01-04T01:37:31.987Z,10.87
2019-01-04T01:40:23.105Z,11.03
2019-01-04T01:43:11.131Z,11.67
2019-01-04T01:45:55.143Z,9.27
2019-01-04T01:48:25.246Z,10.33
2019-01-04T01:50:56.817Z,8.50
2019-01-04T01:53:28.291Z,9.93
2019-01-04T01:55:56.811Z,9.37
2019-01-04T01:58:25.424Z,9.07
2019-01-04T02:00:53.834Z,11.27
2019-01-04T02:03:22.352Z,11.17
2019-01-04T02:05:50.770Z,10.73
2019-01-04T02:08:19.237Z,9.60
2019-01-04T02:10:47.640Z,9.43
2019-01-04T02:13:19.102Z,11.03
2019-01-04T02:15:47.557Z,10.77
2019-01-04T02:18:16.013Z,9.80
2019-01-04T02:20:44.427Z,8.80
2019-01-04T02:23:12.916Z,12.40
2019-01-04T02:25:41.891Z,12.50
2019-01-04T02:28:10.385Z,11.07
2019-01-04T02:30:39.154Z,10.87
2019-01-04T02:33:07.667Z,9.70
2019-01-04T02:35:36.090Z,10.30
2019-01-04T02:38:04.533Z,9.83
2019-01-04T02:40:33.009Z,11.50
2019-01-04T02:43:01.815Z,10.17
2019-01-04T02:45:30.277Z,12.27
2019-01-04T02:47:58.728Z,8.97
2019-01-04T02:50:27.166Z,15.17
2019-01-04T02:52:55.595Z,11.77
2019-01-04T02:55:24.056Z,10.80
2019-01-04T02:57:52.488Z,9.33
2019-01-04T03:00:20.936Z,10.27
2019-01-04T03:02:49.349Z,11.10
2019-01-04T03:05:17.797Z,10.60
2019-01-04T03:07:46.300Z,11.17
2019-01-04T03:10:14.752Z,11.50
2019-01-04T03:12:43.180Z,13.13
2019-01-04T03:15:11.637Z,10.10
2019-01-04T03:17:40.060Z,11.43
2019-01-04T03:20:09.031Z,10.33
2019-01-04T03:22:37.432Z,12.07
2019-01-04T03:25:05.941Z,11.30
2019-01-04T03:27:34.359Z,13.27
2019-01-04T03:30:03.063Z,11.87
2019-01-04T03:32:31.510Z,13.97
2019-01-04T03:35:00.032Z,11.40
2019-01-04T03:37:28.480Z,11.63
2019-01-04T03:39:56.897Z,12.63
2019-01-04T03:42:25.614Z,13.30
2019-01-04T03:44:54.049Z,10.67
2019-01-04T03:47:22.503Z,14.57
2019-01-04T03:49:50.905Z,13.87
2019-01-04T03:52:19.913Z,11.97
2019-01-04T03:54:48.401Z,12.77
2019-01-04T03:57:16.872Z,11.60
2019-01-04T03:59:45.299Z,10.37
2019-01-04T04:02:13.749Z,10.43
2019-01-04T04:04:42.167Z,12.63
2019-01-04T04:07:10.644Z,12.43
2019-01-04T04:09:39.072Z,11.57
2019-01-04T04:12:07.498Z,11.80
2019-01-04T04:14:35.939Z,11.17
2019-01-04T04:17:04.420Z,11.93
2019-01-04T04:19:32.867Z,11.90
2019-01-04T04:22:01.283Z,12.77
2019-01-04T04:24:29.724Z,10.30
2019-01-04T04:26:58.147Z,11.57
2019-01-04T04:29:26.600Z,15.87
2019-01-04T04:31:55.030Z,17.50
2019-01-04T04:34:23.461Z,11.60
2019-01-04T04:36:51.878Z,13.07
2019-01-04T04:39:20.386Z,14.13
2019-01-04T04:41:48.808Z,12.30
2019-01-04T04:44:17.251Z,11.47
2019-01-04T04:46:45.662Z,13.07
2019-01-04T04:49:14.121Z,13.60
2019-01-04T04:51:42.589Z,13.03
2019-01-04T04:54:11.042Z,11.63
2019-01-04T04:56:39.477Z,12.60
2019-01-04T04:59:07.931Z,13.87
2019-01-04T05:01:36.413Z,11.70
2019-01-04T05:04:04.901Z,13.23
2019-01-04T05:06:33.328Z,11.80
2019-01-04T05:09:01.764Z,13.63
2019-01-04T05:11:30.384Z,13.10
2019-01-04T05:13:58.814Z,16.43
2019-01-04T05:16:27.252Z,14.73
2019-01-04T05:18:55.674Z,16.00
2019-01-04T05:21:24.134Z,20.77
2019-01-04T05:23:52.547Z,17.90
2019-01-04T05:26:21.024Z,17.33
2019-01-04T05:28:49.461Z,18.50
2019-01-04T05:31:17.914Z,15.60
2019-01-04T05:33:46.346Z,17.07
2019-01-04T05:36:14.785Z,18.53
2019-01-04T05:38:43.232Z,16.97
2019-01-04T05:41:11.693Z,15.90
2019-01-04T05:43:40.108Z,18.43
2019-01-04T05:46:08.629Z,16.47
2019-01-04T05:48:37.079Z,18.73
2019-01-04T05:51:05.495Z,20.47
2019-01-04T05:53:33.955Z,18.57
2019-01-04T05:56:02.379Z,19.73
2019-01-04T05:58:30.875Z,17.07
2019-01-04T06:00:59.363Z,17.70
2019-01-04T06:03:28.213Z,18.03
2019-01-04T06:05:56.751Z,16.70
2019-01-04T06:08:25.210Z,17.50
2019-01-04T06:10:53.622Z,18.57
2019-01-04T06:13:22.140Z,17.53
2019-01-04T06:15:50.599Z,16.50
2019-01-04T06:18:19.040Z,16.90
2019-01-04T06:20:47.478Z,16.40
2019-01-04T06:23:15.951Z,16.77
2019-01-04T06:25:44.376Z,18.60
2019-01-04T06:28:12.859Z,16.27
2019-01-04T06:30:41.290Z,15.47
2019-01-04T06:33:09.742Z,15.87
2019-01-04T06:35:38.251Z,15.47
2019-01-04T06:38:06.688Z,15.13
2019-01-04T06:40:35.172Z,16.20
2019-01-04T06:43:03.593Z,13.37
2019-01-04T06:45:32.065Z,13.77
2019-01-04T06:48:00.504Z,14.63
2019-01-04T06:50:28.960Z,16.50
2019-01-04T06:52:57.394Z,14.53
2019-01-04T06:55:47.633Z,14.40
2019-01-04T06:58:16.136Z,16.30
2019-01-04T07:00:44.658Z,16.00
2019-01-04T07:03:13.084Z,14.50
2019-01-04T07:05:41.525Z,15.00
2019-01-04T07:08:09.948Z,14.47
2019-01-04T07:10:38.463Z,15.00
2019-01-04T07:13:06.880Z,15.63
2019-01-04T07:15:35.328Z,16.23
2019-01-04T07:18:03.837Z,17.00
2019-01-04T07:20:32.276Z,19.83
2019-01-04T07:23:00.774Z,17.10
2019-01-04T07:25:29.295Z,23.37
2019-01-04T07:27:57.732Z,19.57
2019-01-04T07:30:26.222Z,20.47
2019-01-04T07:32:54.791Z,20.13
2019-01-04T07:35:23.362Z,20.83
2019-01-04T07:37:51.833Z,21.10
2019-01-04T07:40:20.321Z,21.63
2019-01-04T07:42:49.000Z,21.07
2019-01-04T07:45:17.502Z,21.13
2019-01-04T07:47:45.950Z,21.10
2019-01-04T07:50:14.763Z,22.83
2019-01-04T07:52:43.219Z,23.17
2019-01-04T07:55:11.707Z,24.53
2019-01-04T07:57:40.348Z,25.07
2019-01-04T08:00:11.738Z,26.67
2019-01-04T08:02:42.126Z,25.70
2019-01-04T08:05:18.558Z,26.13
2019-01-04T08:07:47.024Z,25.73
2019-01-04T08:10:15.663Z,26.27
2019-01-04T08:12:44.077Z,23.70
2019-01-04T08:15:12.980Z,27.83
2019-01-04T08:17:41.401Z,25.87
2019-01-04T08:20:11.114Z,29.00
2019-01-04T08:22:39.628Z,27.33
2019-01-04T08:25:08.712Z,25.77
2019-01-04T08:27:37.439Z,25.37
2019-01-04T08:30:11.132Z,26.87
2019-01-04T08:32:39.664Z,29.27
2019-01-04T08:35:08.260Z,25.40
2019-01-04T08:37:36.701Z,25.70
2019-01-04T08:40:08.308Z,27.50
2019-01-04T08:42:37.420Z,26.13
2019-01-04T08:45:07.779Z,26.73
2019-01-04T08:47:36.359Z,28.73
2019-01-04T08:50:07.280Z,27.50
2019-01-04T08:52:35.711Z,26.33
2019-01-04T08:55:06.442Z,25.43
2019-01-04T08:57:34.875Z,26.07
2019-01-04T09:00:05.119Z,28.73
2019-01-04T09:02:33.677Z,27.20
2019-01-04T09:05:02.140Z,27.87
2019-01-04T09:07:30.640Z,35.13
2019-01-04T09:09:59.145Z,26.43
2019-01-04T09:12:27.701Z,25.67
2019-01-04T09:14:56.129Z,26.33
2019-01-04T09:17:24.576Z,31.47
2019-01-04T09:19:53.007Z,29.73
2019-01-04T09:22:21.460Z,29.33
2019-01-04T09:24:49.880Z,32.27
2019-01-04T09:27:18.821Z,26.93
2019-01-04T09:29:47.260Z,27.93
2019-01-04T09:32:15.790Z,30.40
2019-01-04T09:34:44.221Z,27.13
2019-01-04T09:37:13.133Z,28.17
2019-01-04T09:39:41.573Z,27.07
2019-01-04T09:42:10.167Z,28.87
2019-01-04T09:44:38.620Z,30.40
2019-01-04T09:47:07.045Z,29.30
2019-01-04T09:49:35.576Z,28.23
2019-01-04T09:52:04.033Z,28.97
2019-01-04T09:54:32.457Z,26.87
2019-01-04T09:57:00.921Z,22.93
2019-01-04T09:59:29.340Z,26.33
2019-01-04T10:01:57.793Z,27.57
2019-01-04T10:04:26.196Z,25.33
2019-01-04T10:06:57.413Z,23.07
2019-01-04T10:09:25.923Z,23.50
2019-01-04T10:11:54.421Z,22.43
2019-01-04T10:14:22.917Z,20.10
2019-01-04T10:16:51.348Z,17.50
2019-01-04T10:19:19.860Z,18.30
2019-01-04T10:21:48.392Z,17.57
2019-01-04T10:24:16.864Z,16.10
2019-01-04T10:26:45.354Z,15.30
2019-01-04T10:29:13.876Z,13.13
2019-01-04T10:31:42.310Z,11.17
2019-01-04T10:34:10.775Z,9.63
2019-01-04T10:36:39.274Z,10.20
2019-01-04T10:39:08.069Z,12.87
2019-01-04T10:41:36.639Z,9.53
2019-01-04T10:44:05.231Z,10.30
2019-01-04T10:46:33.791Z,10.60
2019-01-04T10:49:02.238Z,8.40
2019-01-04T10:51:30.656Z,11.23
2019-01-04T10:53:59.198Z,11.67
2019-01-04T10:56:27.784Z,11.33
2019-01-04T10:58:56.244Z,12.47
2019-01-04T11:01:24.760Z,10.87
2019-01-04T11:03:53.191Z,13.17
2019-01-04T11:06:21.775Z,13.97
2019-01-04T11:08:50.249Z,12.00
2019-01-04T11:11:18.719Z,13.87
2019-01-04T11:13:47.224Z,14.30
2019-01-04T11:16:15.689Z,15.90
2019-01-04T11:18:44.124Z,15.67
2019-01-04T11:21:12.638Z,16.57
2019-01-04T11:24:12.691Z,12.90
2019-01-04T11:26:44.793Z,16.33
2019-01-04T11:29:25.488Z,15.73
2019-01-04T11:31:57.079Z,19.00
2019-01-04T11:34:34.629Z,16.47
2019-01-04T11:37:11.861Z,18.93
2019-01-04T11:39:49.326Z,18.37
2019-01-04T11:42:26.577Z,17.83
2019-01-04T11:45:00.990Z,18.80
2019-01-04T11:47:32.481Z,20.57
2019-01-04T11:50:24.763Z,21.23
2019-01-04T11:52:53.295Z,19.80
2019-01-04T11:55:21.763Z,23.60
2019-01-04T11:57:50.223Z,24.67
2019-01-04T12:00:18.646Z,22.17
2019-01-04T12:02:47.111Z,25.30
2019-01-04T12:05:16.574Z,28.07
2019-01-04T12:07:45.022Z,27.03
2019-01-04T12:10:13.476Z,26.50
2019-01-04T12:12:41.912Z,26.53
2019-01-04T12:15:10.371Z,30.97
2019-01-04T12:17:38.825Z,31.60
2019-01-04T12:20:07.951Z,28.73
2019-01-04T12:22:36.396Z,30.53
2019-01-04T12:25:05.480Z,32.67
2019-01-04T12:27:33.906Z,35.23
2019-01-04T12:30:02.374Z,31.07
2019-01-04T12:32:30.780Z,37.17
2019-01-04T12:34:59.324Z,31.70
2019-01-04T12:37:28.096Z,32.17
2019-01-04T12:39:56.562Z,33.37
2019-01-04T12:42:24.996Z,34.43
2019-01-04T12:44:53.602Z,31.07
2019-01-04T12:47:22.127Z,29.67
2019-01-04T12:49:50.569Z,31.83
2019-01-04T12:52:21.698Z,32.90
2019-01-04T12:54:50.165Z,32.00
2019-01-04T12:57:18.581Z,36.80
2019-01-04T12:59:47.052Z,33.13
2019-01-04T13:02:15.541Z,32.90
2019-01-04T13:04:44.034Z,30.90
2019-01-04T13:07:12.588Z,30.33
2019-01-04T13:09:41.010Z,35.80
2019-01-04T13:12:09.596Z,34.83
2019-01-04T13:14:38.080Z,35.63
2019-01-04T13:17:06.536Z,32.97
2019-01-04T13:19:34.996Z,31.23
2019-01-04T13:22:03.476Z,32.10
2019-01-04T13:24:31.906Z,31.97
2019-01-04T13:27:00.383Z,29.40
2019-01-04T13:29:28.930Z,32.93
2019-01-04T13:31:57.364Z,32.87
2019-01-04T13:34:25.856Z,34.87
2019-01-04T13:36:54.419Z,34.87
2019-01-04T13:39:22.843Z,35.37
2019-01-04T13:41:51.364Z,34.23
2019-01-04T13:44:19.958Z,33.87
2019-01-04T13:46:48.416Z,34.70
2019-01-04T13:49:16.855Z,36.73
2019-01-04T13:51:45.297Z,39.13
2019-01-04T13:54:13.727Z,40.77
2019-01-04T13:56:42.196Z,39.20
2019-01-04T13:59:10.706Z,41.50
2019-01-04T14:01:39.256Z,46.93
2019-01-04T14:04:07.720Z,40.47
2019-01-04T14:06:36.144Z,42.80
2019-01-04T14:09:07.141Z,48.50
2019-01-04T14:11:35.653Z,45.10
2019-01-04T14:14:04.266Z,46.90
2019-01-04T14:16:32.763Z,44.57
2019-01-04T14:19:01.222Z,43.80
2019-01-04T14:21:29.804Z,47.40
2019-01-04T14:24:01.736Z,42.13
2019-01-04T14:26:30.093Z,46.73
2019-01-04T14:28:58.555Z,42.13
2019-01-04T14:31:26.991Z,47.13
2019-01-04T14:33:55.454Z,46.90
2019-01-04T14:36:24.012Z,46.63
2019-01-04T14:38:52.516Z,53.13
2019-01-04T14:41:23.421Z,47.57
2019-01-04T14:43:51.133Z,49.17
2019-01-04T14:46:19.580Z,49.73
2019-01-04T14:48:48.017Z,50.93
2019-01-04T14:51:16.521Z,46.77
2019-01-04T14:53:45.008Z,47.70
2019-01-04T14:56:13.668Z,52.57
2019-01-04T14:58:43.377Z,51.37
2019-01-04T15:01:11.919Z,52.27
2019-01-04T15:03:40.380Z,54.20
2019-01-04T15:06:08.816Z,58.27
2019-01-04T15:08:37.392Z,56.73
2019-01-04T15:11:05.974Z,56.77
2019-01-04T15:13:34.409Z,61.50
2019-01-04T15:16:02.854Z,67.83
2019-01-04T15:18:31.546Z,66.13
2019-01-04T15:21:00.103Z,68.63
2019-01-04T15:23:28.557Z,69.17
2019-01-04T15:25:57.023Z,61.97
2019-01-04T15:28:25.558Z,69.80
2019-01-04T15:30:54.047Z,74.63
2019-01-04T15:33:22.529Z,65.60
2019-01-04T15:35:51.245Z,76.37
2019-01-04T15:38:19.648Z,67.13
2019-01-04T15:40:48.193Z,72.20
2019-01-04T15:43:16.701Z,71.53
2019-01-04T15:45:45.168Z,74.00
2019-01-04T15:48:13.621Z,73.73
2019-01-04T15:50:42.173Z,79.40
2019-01-04T15:53:10.608Z,74.37
2019-01-04T15:55:39.087Z,74.80
2019-01-04T15:58:07.547Z,76.13
2019-01-04T16:00:35.990Z,80.43
2019-01-04T16:03:04.544Z,76.60
2019-01-04T16:05:33.708Z,72.30
2019-01-04T16:08:02.181Z,75.20
2019-01-04T16:10:30.608Z,74.73
2019-01-04T16:12:59.134Z,79.43
2019-01-04T16:15:27.568Z,87.50
2019-01-04T16:17:56.009Z,81.03
2019-01-04T16:20:24.446Z,77.67
2019-01-04T16:22:52.998Z,75.63
2019-01-04T16:25:21.425Z,73.27
2019-01-04T16:27:49.887Z,77.50
2019-01-04T16:30:18.570Z,83.90
2019-01-04T16:32:47.087Z,75.17
2019-01-04T16:35:15.561Z,80.33
2019-01-04T16:37:44.000Z,84.77
2019-01-04T16:40:12.469Z,81.10
2019-01-04T16:42:41.048Z,80.33
2019-01-04T16:45:09.677Z,79.90
2019-01-04T16:47:39.556Z,80.17
2019-01-04T16:50:08.435Z,80.03
2019-01-04T16:52:36.860Z,84.03
2019-01-04T16:55:07.441Z,94.20
2019-01-04T16:57:35.936Z,86.13
2019-01-04T17:00:07.102Z,79.50
2019-01-04T17:02:35.521Z,80.90
2019-01-04T17:05:04.235Z,77.10
2019-01-04T17:07:32.699Z,80.67
2019-01-04T17:10:01.285Z,84.57
2019-01-04T17:12:29.713Z,79.93
2019-01-04T17:14:58.225Z,83.67
2019-01-04T17:17:26.733Z,82.27
2019-01-04T17:19:55.196Z,86.23
2019-01-04T17:22:23.617Z,79.30
2019-01-04T17:24:52.088Z,81.17
2019-01-04T17:27:20.539Z,82.33
2019-01-04T17:29:48.997Z,84.33
2019-01-04T17:32:17.439Z,91.83
2019-01-04T17:34:45.884Z,73.60
2019-01-04T17:37:14.337Z,80.20
2019-01-04T17:39:42.770Z,80.27
2019-01-04T17:42:11.213Z,78.73
2019-01-04T17:44:39.646Z,75.37
2019-01-04T17:47:08.119Z,77.40
2019-01-04T17:49:36.551Z,76.17
2019-01-04T17:52:05.074Z,82.00
2019-01-04T17:54:33.533Z,74.57
2019-01-04T17:57:01.981Z,72.83
2019-01-04T17:59:30.407Z,74.67
2019-01-04T18:01:58.866Z,77.33
2019-01-04T18:04:27.317Z,70.43
2019-01-04T18:06:55.755Z,73.50
2019-01-04T18:09:24.685Z,69.13
2019-01-04T18:11:53.199Z,70.70
2019-01-04T18:14:21.661Z,76.97
2019-01-04T18:16:50.192Z,67.90
2019-01-04T18:19:18.641Z,70.90
2019-01-04T18:21:47.099Z,71.47
2019-01-04T18:24:15.552Z,63.90
2019-01-04T18:26:44.033Z,67.77
2019-01-04T18:29:12.480Z,60.77
2019-01-04T18:31:41.272Z,67.37
2019-01-04T18:34:09.687Z,63.57
2019-01-04T18:36:38.304Z,77.47
2019-01-04T18:39:07.017Z,64.77
2019-01-04T18:41:35.636Z,72.43
2019-01-04T18:44:04.153Z,72.07
2019-01-04T18:46:32.607Z,70.07
2019-01-04T18:49:01.075Z,68.83
2019-01-04T18:51:29.491Z,67.07
2019-01-04T18:53:58.187Z,72.27
2019-01-04T18:56:26.688Z,61.50
2019-01-04T18:58:55.615Z,64.93
2019-01-04T19:01:24.756Z,65.27
2019-01-04T19:03:54.705Z,63.43
2019-01-04T19:06:23.205Z,61.40
2019-01-04T19:08:52.869Z,64.97
2019-01-04T19:11:22.474Z,64.27
2019-01-04T19:13:50.887Z,61.80
2019-01-04T19:16:20.696Z,62.00
2019-01-04T19:18:49.306Z,60.63
2019-01-04T19:21:17.748Z,59.87
2019-01-04T19:23:46.236Z,56.43
2019-01-04T19:26:14.701Z,66.53
2019-01-04T19:28:43.154Z,58.80
2019-01-04T19:31:12.175Z,65.57
2019-01-04T19:33:40.810Z,58.87
2019-01-04T19:36:09.909Z,60.87
2019-01-04T19:38:38.448Z,62.27
2019-01-04T19:41:06.895Z,60.10
2019-01-04T19:43:36.243Z,59.93
2019-01-04T19:46:04.717Z,64.00
2019-01-04T19:48:33.233Z,64.57
2019-01-04T19:51:01.697Z,66.13
2019-01-04T19:53:30.491Z,66.10
2019-01-04T19:55:58.948Z,58.13
2019-01-04T19:58:27.405Z,57.90
2019-01-04T20:00:56.181Z,65.10
2019-01-04T20:03:24.705Z,64.10
2019-01-04T20:06:15.927Z,67.23
2019-01-04T20:09:01.199Z,61.57
2019-01-04T20:11:55.492Z,66.73
2019-01-04T20:15:13.474Z,71.60
2019-01-04T20:18:02.493Z,60.03
2019-01-04T20:20:49.558Z,69.07
2019-01-04T20:23:37.785Z,70.00
2019-01-04T20:26:14.572Z,80.97
2019-01-04T20:29:00.798Z,70.43
2019-01-04T20:31:47.428Z,73.30
2019-01-04T20:34:20.668Z,76.50
2019-01-04T20:37:07.026Z,64.67
2019-01-04T20:39:37.136Z,63.87
2019-01-04T20:42:25.193Z,66.37
2019-01-04T20:44:58.024Z,78.00
2019-01-04T20:47:44.317Z,70.10
2019-01-04T20:50:29.777Z,64.83
2019-01-04T20:53:15.907Z,80.70
2019-01-04T20:55:52.239Z,79.50
2019-01-04T20:58:22.302Z,70.57
2019-01-04T21:01:04.488Z,65.87
2019-01-04T21:03:47.077Z,68.00
2019-01-04T21:06:22.996Z,74.77
2019-01-04T21:09:09.308Z,71.97
2019-01-04T21:11:48.604Z,74.40
2019-01-04T21:14:35.052Z,66.67
2019-01-04T21:17:07.965Z,70.13
2019-01-04T21:19:53.459Z,72.73
2019-01-04T21:22:32.350Z,63.80
2019-01-04T21:25:02.399Z,65.97
2019-01-04T21:27:38.209Z,71.50
2019-01-04T21:30:12.472Z,61.33
2019-01-04T21:33:00.791Z,66.27
2019-01-04T21:35:33.595Z,69.00
2019-01-04T21:38:21.824Z,68.93
2019-01-04T21:41:00.745Z,76.80
2019-01-04T21:43:47.006Z,72.97
2019-01-04T21:46:29.179Z,74.97
2019-01-04T21:49:15.506Z,72.10
2019-01-04T21:51:45.658Z,73.43
2019-01-04T21:54:21.587Z,69.60
2019-01-04T21:57:08.363Z,69.27
2019-01-04T21:59:56.698Z,75.37
2019-01-04T22:02:32.939Z,69.77
2019-01-04T22:05:03.194Z,72.23
2019-01-04T22:07:33.254Z,68.00
2019-01-04T22:10:05.803Z,81.10
2019-01-04T22:12:38.430Z,73.37
2019-01-04T22:15:17.997Z,81.13
2019-01-04T22:17:50.919Z,72.13
2019-01-04T22:20:29.767Z,76.73
2019-01-04T22:23:00.166Z,87.87
2019-01-04T22:25:42.268Z,74.83
2019-01-04T22:28:21.745Z,95.40
2019-01-04T22:30:52.007Z,92.47
2019-01-04T22:33:40.429Z,81.10
2019-01-04T22:36:27.049Z,83.30
2019-01-04T22:39:00.141Z,85.93
2019-01-04T22:41:46.461Z,81.90
2019-01-04T22:44:29.073Z,94.13
2019-01-04T22:47:15.541Z,81.83
2019-01-04T22:49:48.671Z,90.77
2019-01-04T22:52:18.745Z,91.27
2019-01-04T22:55:00.733Z,84.97
2019-01-04T22:57:42.615Z,94.27
2019-01-04T23:00:33.800Z,87.70
2019-01-04T23:03:20.271Z,75.67
2019-01-04T23:06:06.837Z,76.90
2019-01-04T23:08:45.549Z,75.87
2019-01-04T23:11:32.161Z,77.20
2019-01-04T23:14:02.286Z,72.63
2019-01-04T23:16:48.654Z,76.70
2019-01-04T23:19:21.491Z,70.97
2019-01-04T23:21:59.919Z,70.13
2019-01-04T23:24:45.118Z,79.97
2019-01-04T23:27:31.138Z,67.30
2019-01-04T23:30:19.676Z,66.50
2019-01-04T23:32:49.790Z,64.93
2019-01-04T23:35:36.095Z,78.50
2019-01-04T23:38:22.522Z,73.00
2019-01-04T23:41:09.210Z,66.47
2019-01-04T23:43:48.543Z,70.23
2019-01-04T23:46:18.652Z,73.00
2019-01-04T23:49:05.238Z,75.17
2019-01-04T23:51:51.783Z,70.63
2019-01-04T23:54:31.129Z,70.73
2019-01-04T23:57:07.043Z,78.97
2019-01-04T23:59:43.256Z,72.97
